Time;durP1;ratioP1;P1;durP2;ratioP2;P2;SDS_P1;SDS_P2;PMS_P1;PMS_P2;Temp;Humidity;BMP_temperature;BMP_pressure;BME280_temperature;BME280_humidity;BME280_pressure;Samples;Min_cycle;Max_cycle;Signal;HPM_P1;HPM_P2
2022/08/05 00:00:20;;;;;;;7.93;5.25;;;;;;;23.52;68.58;100376.06;5032094;28;20037;-74
2022/08/05 00:02:46;;;;;;;10.18;5.72;;;;;;;23.64;68.09;100387.28;5031304;28;20480;-69
2022/08/05 00:05:12;;;;;;;9.30;5.82;;;;;;;23.80;67.95;100385.22;5029177;28;20075;-68
2022/08/05 00:07:37;;;;;;;7.70;6.07;;;;;;;23.82;67.54;100372.91;5031561;28;20099;-72
2022/08/05 00:10:03;;;;;;;7.80;5.63;;;;;;;23.90;67.01;100381.50;5023208;28;20064;-70
2022/08/05 00:12:29;;;;;;;6.47;5.45;;;;;;;23.89;66.82;100383.28;5028499;28;20072;-71
2022/08/05 00:14:54;;;;;;;8.68;5.57;;;;;;;23.84;67.26;100384.25;5019886;28;20034;-69
2022/08/05 00:17:20;;;;;;;8.15;5.47;;;;;;;23.46;67.96;100327.91;5012821;28;20040;-73
2022/08/05 00:19:46;;;;;;;11.32;5.75;;;;;;;23.81;67.40;100387.81;5029703;28;20465;-71
2022/08/05 00:22:11;;;;;;;10.00;5.88;;;;;;;23.90;67.21;100385.03;5029808;28;20586;-69
2022/08/05 00:24:37;;;;;;;10.13;5.38;;;;;;;23.68;67.21;100378.44;5030179;28;20083;-70
2022/08/05 00:27:02;;;;;;;8.05;5.03;;;;;;;23.69;67.70;100365.22;5030760;28;20056;-72
2022/08/05 00:29:28;;;;;;;7.22;5.20;;;;;;;23.69;67.51;100361.69;5031056;28;20029;-72
2022/08/05 00:31:54;;;;;;;9.52;5.68;;;;;;;23.53;67.54;100329.53;5012987;28;20038;-70
2022/08/05 00:34:19;;;;;;;6.15;5.30;;;;;;;23.97;67.32;100369.97;5030986;28;20495;-72
2022/08/05 00:36:45;;;;;;;10.45;5.60;;;;;;;24.12;66.28;100381.13;5031235;28;20171;-72
2022/08/05 00:39:11;;;;;;;7.65;5.53;;;;;;;23.91;65.88;100367.41;5013539;28;20033;-71
2022/08/05 00:41:37;;;;;;;11.82;6.03;;;;;;;23.75;67.02;100373.00;5013266;28;20635;-71
2022/08/05 00:44:02;;;;;;;8.02;6.28;;;;;;;23.51;68.16;100368.19;5031369;28;20073;-71
2022/08/05 00:46:28;;;;;;;8.38;6.40;;;;;;;23.37;69.07;100371.94;5031008;28;20427;-71
2022/08/05 00:48:53;;;;;;;6.78;5.53;;;;;;;23.21;69.50;100354.66;5030906;28;20113;-70
2022/08/05 00:51:20;;;;;;;10.13;6.22;;;;;;;23.17;70.00;100356.47;5031205;28;20060;-71
2022/08/05 00:53:46;;;;;;;8.68;5.55;;;;;;;23.27;69.69;100373.84;5030674;28;20034;-71
2022/08/05 00:56:12;;;;;;;8.15;5.60;;;;;;;23.21;69.63;100373.09;4995740;28;20431;-70
2022/08/05 00:58:37;;;;;;;14.35;5.90;;;;;;;23.23;70.13;100366.06;5030993;28;20037;-71
2022/08/05 01:01:03;;;;;;;8.55;5.40;;;;;;;23.29;69.00;100350.16;5030625;28;20124;-71
2022/08/05 01:03:29;;;;;;;11.60;5.82;;;;;;;23.33;69.14;100351.81;5031033;28;20044;-71
2022/08/05 01:05:54;;;;;;;7.82;6.28;;;;;;;23.33;69.55;100357.09;4979276;28;20557;-71
2022/08/05 01:08:21;;;;;;;10.55;6.20;;;;;;;22.99;69.82;100291.81;5030917;28;20509;-71
2022/08/05 01:10:52;;;;;;;7.97;5.63;;;;;;;23.48;69.41;100360.34;5030690;28;20044;-71
2022/08/05 01:13:36;;;;;;;7.68;5.97;;;;;;;23.45;69.36;100352.50;5030835;28;20450;-71
2022/08/05 01:16:08;;;;;;;11.25;6.10;;;;;;;23.38;68.86;100338.59;5030926;28;20095;-71
2022/08/05 01:18:41;;;;;;;8.85;5.78;;;;;;;23.43;68.46;100349.91;5030492;28;20577;-71
2022/08/05 01:21:15;;;;;;;8.23;5.35;;;;;;;23.41;68.89;100356.94;5030131;28;20037;-71
2022/08/05 01:23:57;;;;;;;8.00;5.70;;;;;;;23.45;68.46;100345.44;5030242;28;20033;-71
2022/08/05 01:27:11;;;;;;;9.18;5.65;;;;;;;23.17;70.34;100347.72;5030769;28;20117;-70
2022/08/05 01:29:40;;;;;;;8.48;6.20;;;;;;;22.74;72.13;100358.03;4949915;28;20155;-70
2022/08/05 01:32:08;;;;;;;7.97;5.55;;;;;;;22.82;71.83;100357.91;4949846;28;20871;-71
2022/08/05 01:34:41;;;;;;;7.88;5.63;;;;;;;22.74;71.82;100358.03;4949919;28;20129;-69
2022/08/05 01:37:06;;;;;;;8.45;6.13;;;;;;;22.48;71.43;100300.53;4949055;28;20120;-69
2022/08/05 01:39:34;;;;;;;10.32;6.35;;;;;;;22.83;71.94;100354.38;4949687;28;20106;-69
2022/08/05 01:42:00;;;;;;;11.07;6.78;;;;;;;22.85;71.85;100357.84;4949467;28;20050;-70
2022/08/05 01:44:26;;;;;;;9.50;6.38;;;;;;;22.95;71.23;100358.56;4949735;28;20087;-70
2022/08/05 01:46:54;;;;;;;10.57;6.60;;;;;;;23.05;70.80;100354.91;4949532;28;20569;-70
2022/08/05 01:49:22;;;;;;;9.88;6.18;;;;;;;23.01;69.60;100331.28;4949575;29;20510;-69
2022/08/05 01:51:49;;;;;;;9.25;6.57;;;;;;;23.08;69.84;100349.56;4949204;28;20502;-70
2022/08/05 01:54:17;;;;;;;14.05;6.13;;;;;;;23.22;69.73;100351.16;4949401;28;20541;-70
2022/08/05 01:56:44;;;;;;;9.80;6.07;;;;;;;23.23;69.49;100351.13;4917922;28;20047;-71
2022/08/05 01:59:14;;;;;;;8.98;6.43;;;;;;;22.83;69.50;100285.94;4949788;28;20043;-70
2022/08/05 02:01:39;;;;;;;;;;;;;;;22.91;70.20;100354.25;4949842;28;20050;-70
2022/08/05 02:04:06;;;;;;;12.50;6.45;;;;;;;22.05;74.73;100359.78;4958926;28;19913;-70
2022/08/05 02:06:33;;;;;;;7.45;5.78;;;;;;;21.49;77.38;100357.72;5023351;28;20411;-69
2022/08/05 02:08:58;;;;;;;8.65;5.72;;;;;;;21.26;79.35;100357.97;5029381;28;20491;-70
2022/08/05 02:11:24;;;;;;;9.75;6.88;;;;;;;20.92;79.21;100310.13;5029800;28;20168;-70
2022/08/05 02:14:10;;;;;;;11.90;7.43;;;;;;;21.25;79.83;100364.09;5029652;28;20415;-70
2022/08/05 02:16:50;;;;;;;17.70;9.48;;;;;;;21.06;80.95;100365.13;5029754;28;20033;-72
2022/08/05 02:19:33;;;;;;;18.77;8.98;;;;;;;21.05;81.00;100369.53;5029335;28;20029;-71
2022/08/05 02:22:20;;;;;;;15.43;8.52;;;;;;;21.10;80.90;100364.25;5029505;28;20034;-71
2022/08/05 02:24:51;;;;;;;17.13;8.10;;;;;;;21.12;80.98;100365.97;5029769;28;20034;-70
2022/08/05 02:27:18;;;;;;;12.75;7.97;;;;;;;20.90;80.46;100296.16;5029512;28;20033;-69
2022/08/05 02:29:46;;;;;;;13.90;8.40;;;;;;;21.30;79.98;100359.69;5029550;28;20041;-69
2022/08/05 02:32:16;;;;;;;14.35;8.15;;;;;;;21.33;80.05;100354.41;5029648;28;20044;-69
2022/08/05 02:34:43;;;;;;;12.43;7.78;;;;;;;21.05;79.27;100293.41;5029365;28;20038;-69
2022/08/05 02:37:11;;;;;;;10.15;7.70;;;;;;;21.36;79.22;100353.50;5029642;28;20051;-69
2022/08/05 02:39:38;;;;;;;11.23;6.78;;;;;;;21.46;79.08;100344.66;5029702;28;20045;-69
2022/08/05 02:42:05;;;;;;;12.68;7.53;;;;;;;21.60;78.19;100341.06;5028910;28;20048;-68
2022/08/05 02:44:35;;;;;;;8.57;6.53;;;;;;;21.88;76.78;100348.63;5025031;28;20117;-69
2022/08/05 02:47:03;;;;;;;10.45;6.80;;;;;;;21.88;76.53;100351.25;5001503;28;20045;-69
2022/08/05 02:49:33;;;;;;;7.05;6.15;;;;;;;21.90;75.76;100341.59;5032835;28;20044;-69
2022/08/05 02:51:59;;;;;;;;;;;;;;;21.83;75.88;100346.03;5033634;28;20115;-69
2022/08/05 02:54:26;;;;;;;9.52;5.68;;;;;;;21.80;76.15;100346.94;5033252;28;19913;-69
2022/08/05 02:56:52;;;;;;;7.35;5.30;;;;;;;21.44;75.83;100296.50;5032993;28;20049;-69
2022/08/05 02:59:19;;;;;;;8.82;6.13;;;;;;;21.70;75.97;100349.72;5033199;28;20403;-69
2022/08/05 03:01:50;;;;;;;6.35;5.60;;;;;;;21.67;76.20;100345.34;5033042;28;20053;-69
2022/08/05 03:04:18;;;;;;;9.07;5.93;;;;;;;21.80;75.76;100332.94;5032690;28;20407;-69
2022/08/05 03:06:43;;;;;;;8.63;5.72;;;;;;;21.93;75.04;100344.16;5032657;28;20046;-69
2022/08/05 03:09:13;;;;;;;7.20;5.82;;;;;;;21.96;74.88;100345.00;5032725;28;20088;-69
2022/08/05 03:11:41;;;;;;;9.02;5.45;;;;;;;22.07;74.77;100342.25;5033222;28;20073;-69
2022/08/05 03:14:07;;;;;;;13.85;6.38;;;;;;;22.24;72.84;100341.16;5032862;28;20091;-69
2022/08/05 03:16:32;;;;;;;8.52;5.53;;;;;;;22.30;72.90;100343.69;5033010;28;20041;-69
2022/08/05 03:18:59;;;;;;;8.30;5.43;;;;;;;22.05;72.01;100288.81;5032772;28;20030;-69
2022/08/05 03:21:25;;;;;;;8.95;6.22;;;;;;;22.35;69.60;100341.88;5032626;28;20065;-69
2022/08/05 03:23:51;;;;;;;11.57;6.55;;;;;;;22.17;69.83;100284.28;5032598;28;20089;-69
2022/08/05 03:26:17;;;;;;;11.20;6.30;;;;;;;22.54;70.01;100337.28;5032917;28;20068;-69
2022/08/05 03:28:42;;;;;;;10.05;6.15;;;;;;;22.57;69.93;100344.25;5032265;28;20060;-69
2022/08/05 03:31:09;;;;;;;8.77;6.30;;;;;;;22.62;69.92;100347.69;5032506;28;20140;-69
2022/08/05 03:33:35;;;;;;;8.93;6.18;;;;;;;22.66;69.82;100354.63;5032256;28;20514;-69
2022/08/05 03:36:01;;;;;;;10.45;6.45;;;;;;;22.64;68.81;100347.66;5032551;28;20436;-68
2022/08/05 03:38:26;;;;;;;10.77;6.68;;;;;;;22.62;68.72;100350.31;5032059;28;20037;-68
2022/08/05 03:40:52;;;;;;;9.45;6.28;;;;;;;22.56;68.76;100353.88;5032339;28;20510;-69
2022/08/05 03:43:18;;;;;;;12.63;7.05;;;;;;;22.43;69.24;100333.91;5032495;28;20036;-69
2022/08/05 03:45:43;;;;;;;6.95;6.18;;;;;;;22.39;69.12;100348.88;5032016;28;20041;-70
2022/08/05 03:48:08;;;;;;;9.05;6.25;;;;;;;22.11;69.92;100357.09;5031987;28;20043;-69
2022/08/05 03:50:51;;;;;;;8.73;6.38;;;;;;;21.91;70.22;100349.44;5032215;28;20107;-70
2022/08/05 03:53:25;;;;;;;10.20;6.32;;;;;;;21.66;70.83;100362.00;5010097;28;20046;-70
2022/08/05 03:55:59;;;;;;;16.73;6.22;;;;;;;21.07;72.84;100317.00;5025750;28;20037;-71
2022/08/05 03:58:28;;;;;;;7.25;5.95;;;;;;;21.12;73.04;100318.72;5032098;28;20041;-70
2022/08/05 04:00:56;;;;;;;9.95;6.18;;;;;;;20.94;73.68;100303.13;5030901;28;20060;-70
2022/08/05 04:03:24;;;;;;;10.13;6.57;;;;;;;20.82;74.73;100302.34;5032012;28;20483;-69
2022/08/05 04:05:50;;;;;;;11.88;6.28;;;;;;;21.19;75.25;100368.56;5031779;28;20069;-69
2022/08/05 04:08:16;;;;;;;9.35;7.00;;;;;;;20.94;75.57;100311.88;5031870;28;20038;-69
2022/08/05 04:10:43;;;;;;;12.15;6.68;;;;;;;21.36;75.66;100371.00;5031795;28;20037;-69
2022/08/05 04:13:10;;;;;;;10.38;7.25;;;;;;;21.27;76.11;100354.47;5031398;28;20037;-69
2022/08/05 04:15:36;;;;;;;12.02;7.60;;;;;;;21.42;76.31;100369.22;5032146;28;20037;-70
2022/08/05 04:18:03;;;;;;;9.35;6.97;;;;;;;21.48;76.17;100355.13;5031521;28;20037;-71
2022/08/05 04:20:29;;;;;;;9.35;6.97;;;;;;;21.64;76.05;100358.50;5031661;28;20495;-70
2022/08/05 04:22:54;;;;;;;11.63;7.22;;;;;;;21.25;76.00;100284.47;5028356;28;20045;-71
2022/08/05 04:25:20;;;;;;;9.73;6.55;;;;;;;21.80;75.79;100352.19;5031560;28;20025;-72
2022/08/05 04:27:45;;;;;;;9.65;6.53;;;;;;;22.00;75.29;100361.63;5031522;28;20049;-72
2022/08/05 04:30:11;;;;;;;12.60;6.90;;;;;;;22.00;75.30;100358.13;5030706;28;20037;-71
2022/08/05 04:32:36;;;;;;;11.85;7.45;;;;;;;22.09;75.18;100356.25;5031068;28;20050;-72
2022/08/05 04:35:02;;;;;;;10.18;7.80;;;;;;;22.21;75.00;100354.34;5031437;28;20037;-69
2022/08/05 04:37:27;;;;;;;8.60;6.70;;;;;;;22.24;74.28;100355.19;5031414;28;20479;-69
2022/08/05 04:39:53;;;;;;;10.40;7.10;;;;;;;22.37;73.74;100353.28;5031264;28;20042;-70
2022/08/05 04:42:18;;;;;;;8.75;7.28;;;;;;;22.40;74.40;100360.25;5031184;28;20088;-70
2022/08/05 04:44:44;;;;;;;11.57;7.10;;;;;;;22.38;73.74;100341.88;5031280;28;20037;-70
2022/08/05 04:47:09;;;;;;;14.15;6.90;;;;;;;21.98;72.96;100258.25;5030961;28;20041;-70
2022/08/05 04:49:34;;;;;;;19.35;7.18;;;;;;;22.58;72.67;100345.97;5031164;28;20488;-70
2022/08/05 04:52:00;;;;;;;9.73;6.28;;;;;;;22.28;72.82;100298.13;5031038;28;20048;-70
2022/08/05 04:54:28;;;;;;;10.25;6.40;;;;;;;22.70;72.40;100347.56;5031006;28;20030;-71
2022/08/05 04:56:54;;;;;;;11.23;6.50;;;;;;;22.68;72.21;100344.97;5031335;28;20041;-71
2022/08/05 04:59:21;;;;;;;7.47;6.22;;;;;;;22.64;72.42;100335.34;5030911;28;20056;-70
2022/08/05 05:01:50;;;;;;;9.45;6.07;;;;;;;22.77;72.07;100338.69;5030160;28;20042;-74
2022/08/05 05:04:16;;;;;;;;;;;;;;;22.82;72.17;100346.47;5030461;28;20490;-73
2022/08/05 05:06:43;;;;;;;10.43;6.22;;;;;;;22.81;71.91;100334.25;5030415;28;19923;-69
2022/08/05 05:09:10;;;;;;;14.43;6.90;;;;;;;22.87;72.06;100344.69;5030685;28;20129;-69
2022/08/05 05:11:35;;;;;;;7.38;5.78;;;;;;;22.56;72.35;100303.91;5029989;28;20033;-70
2022/08/05 05:14:02;;;;;;;10.70;6.47;;;;;;;22.49;73.24;100294.34;5030178;28;20056;-70
2022/08/05 05:16:28;;;;;;;11.52;6.32;;;;;;;22.74;73.13;100336.97;5029560;28;20025;-70
2022/08/05 05:18:53;;;;;;;11.93;6.78;;;;;;;22.87;72.74;100337.63;5030018;28;20037;-70
2022/08/05 05:21:19;;;;;;;10.88;6.72;;;;;;;22.80;72.83;100340.41;5030291;28;20042;-70
2022/08/05 05:23:44;;;;;;;10.07;6.20;;;;;;;22.84;72.78;100342.06;5030192;28;20044;-69
2022/08/05 05:26:10;;;;;;;11.32;6.65;;;;;;;22.59;73.02;100277.56;5030524;28;20407;-70
2022/08/05 05:28:35;;;;;;;12.98;6.50;;;;;;;23.01;72.74;100340.03;5030214;28;20505;-70
2022/08/05 05:31:00;;;;;;;14.85;6.55;;;;;;;23.10;72.01;100332.00;5029136;28;20049;-71
2022/08/05 05:33:26;;;;;;;10.27;6.45;;;;;;;22.96;71.79;100281.34;5012623;28;20041;-71
2022/08/05 05:35:51;;;;;;;10.85;6.43;;;;;;;23.39;72.80;100332.38;5030425;28;20083;-71
2022/08/05 05:38:17;;;;;;;13.82;6.22;;;;;;;23.38;71.28;100330.69;5030124;28;20057;-71
2022/08/05 05:40:43;;;;;;;10.50;6.03;;;;;;;23.12;71.23;100267.91;5030008;28;20049;-71
2022/08/05 05:43:08;;;;;;;7.18;5.78;;;;;;;23.65;70.21;100337.19;5028928;28;20094;-72
2022/08/05 05:45:34;;;;;;;8.48;5.63;;;;;;;23.56;68.56;100321.53;5012236;28;20041;-72
2022/08/05 05:48:00;;;;;;;7.75;5.60;;;;;;;23.62;72.35;100325.84;5030382;28;20399;-71
2022/08/05 05:50:25;;;;;;;7.47;6.00;;;;;;;23.50;69.47;100329.56;5030049;28;20044;-71
2022/08/05 05:52:51;;;;;;;8.00;6.05;;;;;;;23.59;69.87;100332.91;5029786;28;20050;-70
2022/08/05 05:55:17;;;;;;;9.30;6.13;;;;;;;23.40;69.72;100276.16;5029765;28;20044;-70
2022/08/05 05:57:45;;;;;;;8.95;6.20;;;;;;;23.90;68.82;100331.41;5029797;28;20087;-70
2022/08/05 06:00:16;;;;;;;8.32;6.10;;;;;;;23.99;69.68;100320.72;5029561;28;20040;-70
2022/08/05 06:02:43;;;;;;;15.15;6.10;;;;;;;24.13;69.56;100336.25;5030248;28;20048;-71
2022/08/05 06:05:10;;;;;;;7.32;5.82;;;;;;;24.13;68.34;100330.13;5029831;28;20044;-71
2022/08/05 06:07:36;;;;;;;8.65;5.80;;;;;;;24.13;69.12;100327.47;5029915;28;20029;-71
2022/08/05 06:10:06;;;;;;;7.57;6.25;;;;;;;24.20;68.33;100329.06;4994788;28;20045;-71
2022/08/05 06:12:33;;;;;;;9.80;5.70;;;;;;;24.36;67.71;100327.84;5029814;28;20045;-71
2022/08/05 06:15:00;;;;;;;7.43;5.97;;;;;;;24.54;66.70;100329.16;5027984;28;20034;-72
2022/08/05 06:17:25;;;;;;;13.40;6.30;;;;;;;24.77;66.34;100317.22;5011207;28;20034;-71
2022/08/05 06:19:51;;;;;;;8.82;5.78;;;;;;;25.02;65.09;100317.50;5029452;28;20037;-71
2022/08/05 06:22:23;;;;;;;6.72;5.40;;;;;;;24.99;64.62;100317.56;5011427;28;20079;-71
2022/08/05 06:24:48;;;;;;;14.88;6.03;;;;;;;24.73;65.56;100269.84;5033567;28;20033;-72
2022/08/05 06:27:14;;;;;;;10.20;6.40;;;;;;;25.24;64.17;100330.13;5032774;28;20037;-71
2022/08/05 06:29:39;;;;;;;9.38;5.82;;;;;;;25.09;62.72;100280.38;4982488;28;20069;-70
2022/08/05 06:32:05;;;;;;;7.15;5.07;;;;;;;25.35;63.46;100328.06;5033956;28;20042;-72
2022/08/05 06:34:30;;;;;;;8.55;5.18;;;;;;;25.52;62.35;100332.94;5033534;28;20116;-72
2022/08/05 06:36:56;;;;;;;6.75;5.30;;;;;;;25.77;61.70;100331.38;5033786;28;20034;-72
2022/08/05 06:39:21;;;;;;;9.18;5.07;;;;;;;25.81;61.25;100315.41;5033940;28;20500;-72
2022/08/05 06:41:48;;;;;;;12.52;5.70;;;;;;;25.81;60.04;100290.75;5033340;28;20562;-71
2022/08/05 06:44:13;;;;;;;7.20;5.38;;;;;;;26.08;60.25;100335.81;5033841;28;20033;-72
2022/08/05 06:46:39;;;;;;;19.27;6.43;;;;;;;26.15;60.62;100332.09;5033678;28;20509;-72
2022/08/05 06:49:04;;;;;;;7.43;5.43;;;;;;;26.26;59.58;100337.06;5033459;28;20041;-72
2022/08/05 06:51:31;;;;;;;14.95;5.55;;;;;;;26.43;58.99;100333.88;5028689;28;20056;-73
2022/08/05 06:54:02;;;;;;;7.18;5.00;;;;;;;26.50;58.25;100331.94;5010986;28;20041;-71
2022/08/05 06:56:30;;;;;;;7.55;4.90;;;;;;;26.63;57.71;100330.59;5031134;28;20034;-73
2022/08/05 06:58:55;;;;;;;6.45;4.65;;;;;;;26.40;57.56;100286.34;5032653;28;20075;-72
2022/08/05 07:01:21;;;;;;;9.73;4.90;;;;;;;26.78;57.08;100316.91;5032710;28;20049;-72
2022/08/05 07:03:46;;;;;;;7.57;4.78;;;;;;;26.95;56.71;100321.66;5032129;28;20037;-71
2022/08/05 07:06:12;;;;;;;5.53;4.07;;;;;;;26.59;57.09;100265.44;5032946;28;20078;-71
2022/08/05 07:08:37;;;;;;;7.30;4.40;;;;;;;27.01;58.51;100331.16;5032788;28;20041;-71
2022/08/05 07:11:04;;;;;;;7.38;4.50;;;;;;;26.96;61.21;100322.50;5031876;28;20034;-70
2022/08/05 07:18:57;;;;;;;6.25;4.18;;;;;;;26.93;55.13;100328.78;5022991;28;20083;-70
2022/08/05 07:21:23;;;;;;;7.55;3.47;;;;;;;26.96;55.04;100333.97;5032704;28;20468;-70
2022/08/05 07:23:48;;;;;;;8.93;3.58;;;;;;;27.13;53.86;100329.91;5032837;28;20040;-70
2022/08/05 07:26:14;;;;;;;6.75;3.65;;;;;;;27.34;53.51;100330.06;5032642;28;20034;-71
2022/08/05 07:28:39;;;;;;;7.63;4.00;;;;;;;27.42;55.69;100328.91;5033067;28;20033;-70
2022/08/05 07:31:06;;;;;;;5.93;3.60;;;;;;;27.54;54.34;100332.91;5033031;28;20037;-70
2022/08/05 07:33:32;;;;;;;5.18;3.50;;;;;;;27.69;54.08;100331.47;5032679;28;20090;-70
2022/08/05 07:35:58;;;;;;;8.80;4.00;;;;;;;27.72;54.02;100314.59;5031462;28;20066;-70
2022/08/05 07:38:24;;;;;;;5.47;3.50;;;;;;;27.89;52.79;100329.88;5032804;28;20029;-70
2022/08/05 07:40:50;;;;;;;14.68;3.63;;;;;;;27.73;54.40;100319.84;5025367;28;20077;-70
2022/08/05 07:43:16;;;;;;;5.05;3.90;;;;;;;27.75;52.19;100320.66;5030226;28;20065;-70
2022/08/05 07:45:43;;;;;;;26.17;5.13;;;;;;;27.80;52.44;100328.41;5011727;28;20495;-71
2022/08/05 07:48:09;;;;;;;7.95;3.40;;;;;;;27.98;50.50;100323.38;5026208;28;20561;-70
2022/08/05 07:50:35;;;;;;;10.88;3.85;;;;;;;27.82;49.34;100270.88;5032732;28;20124;-70
2022/08/05 07:53:01;;;;;;;11.43;3.97;;;;;;;28.29;52.42;100327.50;5032984;28;20500;-70
2022/08/05 07:55:26;;;;;;;8.43;3.60;;;;;;;28.29;50.34;100330.16;5033215;28;20049;-70
2022/08/05 07:57:52;;;;;;;5.75;3.30;;;;;;;28.23;50.26;100315.34;5033046;28;20113;-70
2022/08/05 08:00:17;;;;;;;4.50;3.15;;;;;;;28.24;50.42;100319.75;5015299;28;20037;-70
2022/08/05 08:02:43;;;;;;;7.07;3.40;;;;;;;28.28;52.41;100326.66;5032485;28;20063;-70
2022/08/05 08:05:09;;;;;;;8.35;3.80;;;;;;;28.38;50.99;100313.88;5014941;28;20045;-70
2022/08/05 08:07:35;;;;;;;6.75;3.60;;;;;;;28.01;51.66;100227.72;5033113;28;20040;-70
2022/08/05 08:10:00;;;;;;;9.05;3.85;;;;;;;28.57;49.01;100308.69;5033039;28;20042;-70
2022/08/05 08:12:26;;;;;;;6.22;3.63;;;;;;;28.72;46.44;100310.75;5032919;28;20026;-70
2022/08/05 08:14:51;;;;;;;4.95;3.28;;;;;;;28.87;46.35;100297.75;5032791;28;20037;-70
2022/08/05 08:17:18;;;;;;;5.85;3.53;;;;;;;28.99;49.17;100296.38;5032764;28;20095;-70
2022/08/05 08:19:44;;;;;;;15.00;4.88;;;;;;;29.05;47.02;100299.63;5032822;28;20045;-70
2022/08/05 08:22:11;;;;;;;11.32;4.00;;;;;;;29.09;46.19;100287.06;5032698;28;20499;-70
2022/08/05 08:24:37;;;;;;;13.75;4.53;;;;;;;28.99;48.56;100243.22;5032531;28;20085;-70
2022/08/05 08:27:05;;;;;;;8.60;4.18;;;;;;;29.34;45.12;100291.34;5032438;28;20515;-70
2022/08/05 08:29:30;;;;;;;8.07;3.95;;;;;;;29.39;44.96;100289.34;5032454;28;20037;-70
2022/08/05 08:31:56;;;;;;;6.03;3.10;;;;;;;29.28;44.82;100238.41;5032442;28;20045;-70
2022/08/05 08:34:23;;;;;;;6.95;3.55;;;;;;;29.67;43.45;100283.66;5032251;28;20484;-70
2022/08/05 08:36:49;;;;;;;4.75;2.88;;;;;;;29.70;42.86;100272.00;5032487;28;20034;-70
2022/08/05 08:39:17;;;;;;;6.43;3.10;;;;;;;29.78;43.02;100269.81;5032414;28;20037;-69
2022/08/05 08:41:44;;;;;;;6.63;3.45;;;;;;;30.07;46.80;100283.63;5032208;28;20112;-69
2022/08/05 08:44:14;;;;;;;3.78;3.17;;;;;;;30.13;44.75;100272.69;5032216;28;20116;-69
2022/08/05 08:46:40;;;;;;;8.27;3.42;;;;;;;30.12;44.88;100264.75;5031942;28;20084;-69
2022/08/05 08:49:06;;;;;;;6.38;3.47;;;;;;;30.16;44.70;100266.34;5032170;28;20037;-70
2022/08/05 08:51:34;;;;;;;4.32;3.15;;;;;;;30.20;43.90;100269.72;5031912;28;20058;-69
2022/08/05 08:54:00;;;;;;;7.28;3.28;;;;;;;30.15;43.65;100260.13;5032056;28;20536;-70
2022/08/05 08:56:26;;;;;;;5.50;3.15;;;;;;;30.17;45.50;100262.75;5032075;28;20030;-69
2022/08/05 08:58:52;;;;;;;9.63;3.33;;;;;;;30.13;43.55;100258.47;5031936;28;20586;-70
2022/08/05 09:01:18;;;;;;;7.28;3.42;;;;;;;29.95;42.58;100253.09;5031620;28;20116;-69
2022/08/05 09:03:51;;;;;;;6.35;3.17;;;;;;;29.70;45.12;100206.34;5032220;28;20061;-69
2022/08/05 09:06:16;;;;;;;5.28;3.17;;;;;;;30.06;43.96;100249.06;5031948;28;20040;-69
2022/08/05 09:08:42;;;;;;;6.05;3.55;;;;;;;30.17;43.41;100252.94;5031702;28;20033;-69
2022/08/05 09:11:08;;;;;;;5.05;3.17;;;;;;;30.29;44.05;100250.63;5031728;28;20080;-69
2022/08/05 09:13:34;;;;;;;6.22;3.22;;;;;;;30.39;42.82;100243.88;5031617;28;20147;-69
2022/08/05 09:16:00;;;;;;;3.88;2.95;;;;;;;30.58;41.42;100243.00;5031484;28;20045;-69
2022/08/05 09:18:25;;;;;;;7.40;2.95;;;;;;;30.58;40.53;100241.22;5031603;28;20403;-69
2022/08/05 09:20:51;;;;;;;4.00;2.97;;;;;;;30.51;39.50;100229.16;5031526;28;20470;-70
2022/08/05 09:23:20;;;;;;;9.98;2.67;;;;;;;30.04;39.91;100185.25;5031476;28;20036;-70
2022/08/05 09:25:49;;;;;;;5.00;2.97;;;;;;;30.55;40.63;100241.34;5031357;28;20459;-69
2022/08/05 09:28:16;;;;;;;5.43;2.90;;;;;;;30.55;42.94;100237.84;5031365;28;20042;-69
2022/08/05 09:31:03;;;;;;;8.25;2.90;;;;;;;30.51;40.95;100229.16;5031160;28;20033;-69
2022/08/05 09:33:29;;;;;;;10.70;3.47;;;;;;;30.39;39.96;100201.28;5031337;28;20033;-69
2022/08/05 09:36:04;;;;;;;11.98;3.80;;;;;;;30.59;39.57;100224.28;5031146;28;20427;-69
2022/08/05 09:38:30;;;;;;;8.32;3.75;;;;;;;30.52;40.11;100198.91;5031031;28;20439;-69
2022/08/05 09:41:08;;;;;;;8.35;2.80;;;;;;;30.77;37.86;100222.47;5030979;28;20037;-69
2022/08/05 09:43:38;;;;;;;6.60;2.50;;;;;;;30.81;37.13;100216.03;5031192;28;20025;-69
2022/08/05 09:46:10;;;;;;;5.53;2.70;;;;;;;31.05;38.04;100202.38;5013358;28;20479;-69
2022/08/05 09:48:37;;;;;;;6.85;2.67;;;;;;;31.10;38.53;100211.00;5031024;28;20458;-69
2022/08/05 09:51:05;;;;;;;6.55;2.90;;;;;;;31.13;40.14;100210.03;5030843;28;20045;-71
2022/08/05 09:53:46;;;;;;;8.18;2.92;;;;;;;31.22;38.21;100206.00;5030827;28;20483;-70
2022/08/05 09:56:12;;;;;;;7.97;2.67;;;;;;;31.11;37.68;100201.22;5030984;28;20033;-70
2022/08/05 09:58:38;;;;;;;7.97;2.92;;;;;;;31.12;38.68;100208.28;5030176;28;20045;-70
2022/08/05 10:01:05;;;;;;;4.57;3.03;;;;;;;31.27;40.15;100193.28;5031095;28;20041;-70
2022/08/05 10:03:32;;;;;;;5.03;3.00;;;;;;;31.57;38.77;100205.88;5030689;28;20508;-70
2022/08/05 10:06:05;;;;;;;5.22;2.50;;;;;;;31.78;36.58;100195.84;5030747;28;20507;-70
2022/08/05 10:08:32;;;;;;;4.28;2.40;;;;;;;32.07;37.06;100190.66;5031149;28;20040;-70
2022/08/05 10:10:57;;;;;;;3.45;2.40;;;;;;;32.38;35.03;100189.75;5030702;28;20407;-70
2022/08/05 10:13:27;;;;;;;7.57;2.70;;;;;;;32.72;37.47;100189.53;5030793;28;20041;-70
2022/08/05 10:15:54;;;;;;;4.95;2.70;;;;;;;32.93;33.66;100183.88;5030727;28;20120;-70
2022/08/05 10:18:22;;;;;;;7.03;2.60;;;;;;;33.04;34.86;100166.22;5030659;28;20392;-70
2022/08/05 10:20:50;;;;;;;5.37;2.70;;;;;;;32.85;35.02;100173.63;5030506;28;20045;-70
2022/08/05 10:23:31;;;;;;;5.82;2.45;;;;;;;32.76;36.14;100160.84;5030650;28;20037;-70
2022/08/05 10:26:17;;;;;;;5.40;2.67;;;;;;;32.61;35.25;100173.28;5030518;28;20117;-70
2022/08/05 10:28:44;;;;;;;8.88;2.65;;;;;;;32.43;36.46;100171.63;4988641;28;20050;-70
2022/08/05 10:31:12;;;;;;;5.13;2.60;;;;;;;31.89;35.66;100123.13;4988728;28;20034;-70
2022/08/05 10:33:38;;;;;;;12.65;3.80;;;;;;;32.42;36.68;100159.22;4972892;28;20420;-70
2022/08/05 10:36:04;;;;;;;6.47;2.65;;;;;;;32.44;33.13;100119.06;4972929;28;20432;-70
2022/08/05 10:38:32;;;;;;;6.65;2.88;;;;;;;32.74;33.19;100152.91;4989033;28;20085;-69
2022/08/05 10:41:16;;;;;;;11.18;3.15;;;;;;;32.77;33.70;100154.56;4988866;28;20049;-70
2022/08/05 10:43:44;;;;;;;3.53;2.28;;;;;;;32.84;34.34;100150.56;4988874;28;20129;-69
2022/08/05 10:46:13;;;;;;;6.53;2.50;;;;;;;32.99;34.12;100144.25;4988859;28;20054;-70
2022/08/05 10:48:46;;;;;;;4.78;2.50;;;;;;;32.77;32.84;100096.59;4987097;28;20121;-70
2022/08/05 10:51:13;;;;;;;3.88;2.53;;;;;;;32.93;32.63;100143.78;4987626;28;20058;-69
2022/08/05 10:53:47;;;;;;;6.00;2.70;;;;;;;32.80;34.95;100143.66;4988791;28;20043;-69
2022/08/05 10:56:15;;;;;;;14.98;4.03;;;;;;;32.70;35.39;100135.31;4988784;28;20042;-69
2022/08/05 10:59:10;;;;;;;4.93;2.58;;;;;;;32.70;33.72;100143.31;4991926;28;20050;-69
2022/08/05 11:01:41;;;;;;;6.18;2.65;;;;;;;32.69;35.83;100142.47;4949851;29;20035;-70
2022/08/05 11:04:20;;;;;;;4.70;2.78;;;;;;;32.84;33.53;100139.88;4950087;29;20046;-69
2022/08/05 11:07:03;;;;;;;6.32;2.47;;;;;;;33.28;32.69;100133.50;4949941;29;20525;-70
2022/08/05 11:09:52;;;;;;;13.07;4.03;;;;;;;33.70;32.20;100126.38;4951830;28;20127;-70
2022/08/05 11:12:37;;;;;;;4.80;2.60;;;;;;;33.88;31.89;100123.47;4953531;28;20047;-70
2022/08/05 11:15:26;;;;;;;12.13;4.72;;;;;;;33.64;31.22;100129.44;4953387;29;20045;-70
2022/08/05 11:18:31;;;;;;;8.43;3.45;;;;;;;33.81;32.68;100122.13;4934078;29;20042;-69
2022/08/05 11:20:57;;;;;;;10.47;2.47;;;;;;;33.88;31.44;100103.88;4918083;29;20079;-70
2022/08/05 11:23:42;;;;;;;4.82;2.35;;;;;;;34.05;30.96;100125.03;4934002;29;20071;-70
2022/08/05 11:26:15;;;;;;;5.20;2.30;;;;;;;34.39;31.29;100116.56;4934209;29;20465;-70
2022/08/05 11:28:43;;;;;;;5.78;2.20;;;;;;;34.65;28.80;100101.34;4934133;29;20821;-70
2022/08/05 11:31:08;;;;;;;4.47;2.50;;;;;;;34.89;31.05;100127.41;4934091;29;20522;-70
2022/08/05 11:33:38;;;;;;;4.00;2.10;;;;;;;34.93;30.17;100099.41;4933860;29;20050;-70